Time;durP1;ratioP1;P1;durP2;ratioP2;P2;SDS_P1;SDS_P2;PMS_P1;PMS_P2;Temp;Humidity;BMP_temperature;BMP_pressure;BME280_temperature;BME280_humidity;BME280_pressure;Samples;Min_cycle;Max_cycle;Signal;HPM_P1;HPM_P2
2023/05/23 00:19:35;;;;;;;3.47;1.52;;;;;;;15.28;100.00;99568.78;6147817;23;20108;-90
2023/05/23 00:22:02;;;;;;;1.17;1.08;;;;;;;15.34;100.00;99566.09;6124620;23;20109;-92
2023/05/23 00:24:28;;;;;;;1.55;1.30;;;;;;;15.26;100.00;99551.72;6100178;23;20112;-91
2023/05/23 00:26:53;;;;;;;16.15;2.28;;;;;;;15.49;100.00;99589.22;6099765;23;20384;-92
2023/05/23 00:29:19;;;;;;;1.27;1.05;;;;;;;15.35;100.00;99567.63;6149820;23;20024;-92
2023/05/23 00:31:45;;;;;;;1.15;0.88;;;;;;;15.25;100.00;99568.97;6150621;23;20451;-90
2023/05/23 00:34:12;;;;;;;1.08;0.63;;;;;;;15.25;100.00;99555.00;6124163;23;19997;-92
2023/05/23 00:36:40;;;;;;;1.20;0.85;;;;;;;15.29;100.00;99552.78;6124395;23;20018;-92
2023/05/23 00:39:07;;;;;;;0.28;0.28;;;;;;;15.25;100.00;99552.19;6149599;23;20025;-91
2023/05/23 00:41:33;;;;;;;2.10;1.10;;;;;;;15.15;100.00;99543.16;6124578;23;20033;-92
2023/05/23 00:43:58;;;;;;;1.65;1.55;;;;;;;15.26;100.00;99568.50;6098199;23;20010;-91
2023/05/23 00:46:25;;;;;;;1.98;1.77;;;;;;;15.14;100.00;99557.59;6150061;23;20288;-91
2023/05/23 00:48:52;;;;;;;1.20;1.17;;;;;;;15.06;100.00;99545.25;6149346;23;20408;-93
2023/05/23 00:51:18;;;;;;;4.85;0.93;;;;;;;15.11;100.00;99547.38;6124785;23;20009;-92
2023/05/23 00:53:43;;;;;;;0.60;0.47;;;;;;;14.99;100.00;99540.03;6149861;23;20144;-93
2023/05/23 00:56:11;;;;;;;0.63;0.63;;;;;;;14.97;100.00;99542.53;6100427;23;20050;-91
2023/05/23 00:58:37;;;;;;;3.60;1.92;;;;;;;14.90;100.00;99540.88;6070971;23;20060;-92
2023/05/23 01:03:38;;;;;;;4.18;1.13;;;;;;;15.09;100.00;99563.81;6131788;23;20022;-88
2023/05/23 01:06:03;;;;;;;0.68;0.68;;;;;;;15.09;100.00;99566.63;6095413;23;20048;-87
2023/05/23 01:08:29;;;;;;;0.82;0.80;;;;;;;15.10;100.00;99571.75;6122783;23;20435;-87
2023/05/23 01:10:57;;;;;;;2.92;0.57;;;;;;;15.04;100.00;99562.50;6099106;23;20473;-88
2023/05/23 01:13:47;;;;;;;0.40;0.40;;;;;;;15.07;100.00;99574.72;6100198;23;20539;-88
2023/05/23 01:16:17;;;;;;;0.88;0.88;;;;;;;15.11;100.00;99553.75;6099791;23;20347;-88
2023/05/23 01:19:04;;;;;;;1.00;0.90;;;;;;;15.02;100.00;99544.66;6099296;23;20028;-88
2023/05/23 01:21:31;;;;;;;0.43;0.43;;;;;;;15.12;100.00;99557.31;6099268;23;20040;-88
2023/05/23 01:24:26;;;;;;;2.17;1.17;;;;;;;15.26;100.00;99562.91;6123227;23;20574;-87
2023/05/23 01:27:00;;;;;;;4.50;1.58;;;;;;;15.29;100.00;99552.78;6098559;23;20013;-87
2023/05/23 01:29:29;;;;;;;1.67;1.30;;;;;;;15.29;100.00;99552.78;6074700;23;20024;-88
2023/05/23 01:31:57;;;;;;;0.63;0.63;;;;;;;15.17;100.00;99534.25;6096741;23;20022;-88
2023/05/23 01:34:22;;;;;;;2.33;1.83;;;;;;;15.08;100.00;99553.94;6098279;23;20017;-87
2023/05/23 01:36:55;;;;;;;0.30;0.30;;;;;;;14.98;100.00;99561.59;6121724;23;20076;-91
2023/05/23 01:39:21;;;;;;;0.70;0.70;;;;;;;14.86;100.00;99552.25;6098063;23;20096;-91
2023/05/23 01:41:48;;;;;;;0.65;0.60;;;;;;;14.82;100.00;99560.03;6098059;23;20029;-91
2023/05/23 01:44:14;;;;;;;1.10;1.05;;;;;;;14.71;100.00;99559.81;6121531;23;20089;-92
2023/05/23 01:46:40;;;;;;;0.52;0.47;;;;;;;14.43;100.00;99531.34;6097134;23;20616;-91
2023/05/23 01:49:07;;;;;;;0.85;0.85;;;;;;;14.42;100.00;99537.38;6096459;23;20095;-91
2023/05/23 01:51:33;;;;;;;2.58;0.70;;;;;;;14.59;100.00;99552.47;6098255;23;20017;-91
2023/05/23 01:53:59;;;;;;;1.13;0.95;;;;;;;14.61;100.00;99557.53;6097039;23;20056;-90
2023/05/23 01:56:27;;;;;;;2.78;1.60;;;;;;;14.48;100.00;99527.09;6097641;23;20104;-91
2023/05/23 01:58:53;;;;;;;0.63;0.63;;;;;;;14.41;100.00;99527.44;6097511;23;20017;-91
2023/05/23 02:01:20;;;;;;;1.00;0.63;;;;;;;14.27;100.00;99514.19;6094146;23;20146;-91
2023/05/23 02:03:45;;;;;;;0.35;0.35;;;;;;;14.44;100.00;99540.44;6063768;23;20397;-91
2023/05/23 02:06:11;;;;;;;0.65;0.65;;;;;;;14.59;100.00;99558.03;6063850;23;20026;-91
2023/05/23 02:08:37;;;;;;;0.95;0.95;;;;;;;14.42;100.00;99537.38;6063843;23;20037;-91
2023/05/23 02:11:02;;;;;;;0.93;0.55;;;;;;;14.34;100.00;99511.03;6088339;23;20006;-90
2023/05/23 02:13:28;;;;;;;0.35;0.17;;;;;;;14.39;100.00;99516.00;6063126;23;20025;-91
2023/05/23 02:15:53;;;;;;;0.60;0.60;;;;;;;14.53;100.00;99540.41;6087325;23;20140;-91
2023/05/23 02:18:20;;;;;;;0.28;0.22;;;;;;;14.22;100.00;99498.09;6064201;23;20018;-91
2023/05/23 02:20:48;;;;;;;0.35;0.35;;;;;;;14.53;100.00;99545.97;6062975;23;20093;-91
2023/05/23 02:23:14;;;;;;;1.50;0.70;;;;;;;14.15;100.00;99490.09;6091063;23;20010;-91
2023/05/23 02:25:40;;;;;;;0.95;0.95;;;;;;;14.38;100.00;99525.63;6067675;23;20019;-90
2023/05/23 02:28:05;;;;;;;0.50;0.50;;;;;;;14.29;100.00;99511.69;6091272;23;20433;-91
2023/05/23 02:30:31;;;;;;;0.55;0.30;;;;;;;14.14;100.00;99488.56;6043558;23;20444;-91
2023/05/23 02:32:57;;;;;;;1.35;0.50;;;;;;;14.17;100.00;99498.75;6067232;23;20111;-90
2023/05/23 02:35:23;;;;;;;1.42;1.33;;;;;;;14.39;100.00;99535.53;6067483;23;20349;-91
2023/05/23 02:37:49;;;;;;;0.82;0.82;;;;;;;14.21;100.00;99522.44;6067020;23;20014;-90
2023/05/23 02:40:15;;;;;;;0.00;0.00;;;;;;;14.07;100.00;99505.66;6091933;23;20018;-91
2023/05/23 02:42:41;;;;;;;0.70;0.70;;;;;;;14.02;100.00;99510.63;6067679;23;20417;-91
2023/05/23 02:45:07;;;;;;;0.28;0.28;;;;;;;14.14;100.00;99522.81;6067009;23;20519;-88
2023/05/23 02:47:33;;;;;;;2.10;1.13;;;;;;;14.12;100.00;99519.69;6067970;23;20352;-88
2023/05/23 02:49:58;;;;;;;0.88;0.57;;;;;;;14.06;100.00;99518.81;6089939;23;20071;-88
2023/05/23 02:52:24;;;;;;;1.35;0.93;;;;;;;14.09;100.00;99536.59;6066834;23;20015;-89
2023/05/23 02:54:49;;;;;;;2.40;1.25;;;;;;;13.83;100.00;99495.22;6090454;23;20093;-88
2023/05/23 02:57:15;;;;;;;1.13;0.85;;;;;;;13.88;100.00;99497.38;6089477;23;20015;-89
2023/05/23 02:59:41;;;;;;;2.08;1.00;;;;;;;13.85;100.00;99506.69;6089848;23;20014;-89
2023/05/23 03:02:07;;;;;;;0.77;0.60;;;;;;;13.98;100.00;99523.97;6066867;23;20483;-90
2023/05/23 03:04:32;;;;;;;1.48;0.82;;;;;;;13.58;100.00;99472.59;6042894;23;20113;-92
2023/05/23 03:06:58;;;;;;;0.75;0.73;;;;;;;13.74;100.00;99495.28;6090337;23;20073;-91
2023/05/23 03:09:24;;;;;;;1.23;0.95;;;;;;;13.82;100.00;99513.22;6065968;23;20321;-92
2023/05/23 03:11:50;;;;;;;2.03;1.15;;;;;;;13.79;100.00;99508.56;6066076;23;20018;-90
2023/05/23 03:14:16;;;;;;;0.77;0.77;;;;;;;13.66;100.00;99508.00;6043018;23;20020;-90
2023/05/23 03:16:42;;;;;;;1.25;1.15;;;;;;;13.87;100.00;99534.09;6089849;23;20379;-91
2023/05/23 03:19:07;;;;;;;0.90;0.90;;;;;;;13.62;100.00;99489.91;6064939;23;20018;-90
2023/05/23 03:21:34;;;;;;;1.00;0.90;;;;;;;13.82;100.00;99535.50;6064881;23;20010;-90
2023/05/23 03:24:00;;;;;;;2.03;1.55;;;;;;;13.53;100.00;99479.56;6065759;23;20053;-91
2023/05/23 03:26:28;;;;;;;2.45;0.73;;;;;;;13.91;100.00;99535.44;6066047;23;20002;-92
2023/05/23 03:28:55;;;;;;;0.55;0.55;;;;;;;13.68;100.00;99499.16;6064577;23;20456;-88
2023/05/23 03:31:21;;;;;;;0.93;0.93;;;;;;;13.71;100.00;99512.19;6090341;23;20093;-89
2023/05/23 03:33:46;;;;;;;0.82;0.82;;;;;;;13.72;100.00;99503.31;6066296;23;20017;-88
2023/05/23 03:36:12;;;;;;;0.63;0.63;;;;;;;13.66;100.00;99505.22;6066242;23;20097;-89
2023/05/23 03:38:37;;;;;;;2.10;1.83;;;;;;;13.50;100.00;99484.09;6042650;23;20010;-88
2023/05/23 03:41:03;;;;;;;0.93;0.57;;;;;;;13.78;100.00;99522.97;6092200;23;20015;-91
2023/05/23 03:43:29;;;;;;;0.90;0.90;;;;;;;13.88;100.00;99532.84;6090658;23;20033;-91
2023/05/23 03:45:55;;;;;;;1.98;0.98;;;;;;;13.83;100.00;99525.88;6066079;23;20065;-92
2023/05/23 03:48:20;;;;;;;0.40;0.40;;;;;;;13.97;100.00;99536.38;6066082;23;20070;-91
2023/05/23 03:50:47;;;;;;;0.32;0.32;;;;;;;13.76;100.00;99503.94;6064828;23;20307;-91
2023/05/23 03:53:12;;;;;;;0.20;0.20;;;;;;;14.01;100.00;99547.34;6065711;23;20018;-91
2023/05/23 03:55:38;;;;;;;1.17;1.13;;;;;;;13.82;100.00;99512.44;6066901;23;20010;-91
2023/05/23 03:58:05;;;;;;;0.50;0.50;;;;;;;13.87;100.00;99497.84;6090268;23;20022;-91
2023/05/23 04:00:31;;;;;;;0.93;0.82;;;;;;;14.05;100.00;99513.69;6065655;23;20006;-89
2023/05/23 04:02:58;;;;;;;1.42;1.33;;;;;;;13.97;100.00;99490.97;6066528;23;20018;-89
2023/05/23 04:05:23;;;;;;;0.95;0.65;;;;;;;14.21;100.00;99524.44;6066373;23;20464;-90
2023/05/23 04:07:50;;;;;;;0.90;0.85;;;;;;;14.12;100.00;99504.97;6042026;23;20090;-88
2023/05/23 04:10:17;;;;;;;0.93;0.85;;;;;;;14.29;100.00;99525.63;6089937;23;20029;-88
2023/05/23 04:12:43;;;;;;;0.57;0.57;;;;;;;14.14;100.00;99482.97;6090626;23;20030;-87
2023/05/23 04:15:13;;;;;;;2.95;1.83;;;;;;;14.34;100.00;99497.09;6089350;23;20045;-87
2023/05/23 04:17:50;;;;;;;0.88;0.88;;;;;;;14.54;100.00;99513.25;6089893;23;20018;-87
2023/05/23 04:20:16;;;;;;;6.65;2.17;;;;;;;14.67;100.00;99522.94;6087881;23;20298;-89
2023/05/23 04:22:42;;;;;;;2.08;1.30;;;;;;;14.48;100.00;99493.59;6083354;23;20021;-90
2023/05/23 04:25:11;;;;;;;0.90;0.75;;;;;;;14.73;100.00;99501.47;6064381;23;20021;-89
2023/05/23 04:27:43;;;;;;;0.90;0.65;;;;;;;14.79;100.00;99509.97;6066677;23;20017;-89
2023/05/23 04:30:10;;;;;;;0.82;0.82;;;;;;;15.00;100.00;99513.66;6059435;23;20038;-89
2023/05/23 04:32:39;;;;;;;1.58;0.90;;;;;;;15.04;100.00;99508.66;6041876;23;20007;-88
2023/05/23 04:35:05;;;;;;;0.57;0.57;;;;;;;15.22;100.00;99525.22;6084169;23;20020;-87
2023/05/23 04:37:34;;;;;;;0.55;0.55;;;;;;;15.27;100.00;99527.34;6064140;23;20022;-90
2023/05/23 04:40:01;;;;;;;2.40;1.75;;;;;;;15.25;100.00;99516.66;6063583;23;20022;-89
2023/05/23 04:42:58;;;;;;;0.82;0.80;;;;;;;15.46;100.00;99539.88;6088115;23;20117;-91
2023/05/23 04:45:43;;;;;;;0.85;0.80;;;;;;;15.60;100.00;99539.13;6087468;23;20468;-90
2023/05/23 04:48:23;;;;;;;2.60;0.70;;;;;;;15.58;100.00;99512.91;6088324;23;20014;-91
2023/05/23 04:50:51;;;;;;;1.85;1.17;;;;;;;15.79;100.00;99543.25;6088968;23;20097;-91
2023/05/23 04:53:17;;;;;;;1.15;1.05;;;;;;;15.64;100.00;99499.78;6065625;23;20348;-92
2023/05/23 04:55:47;;;;;;;3.60;1.27;;;;;;;15.69;100.00;99513.84;6088711;23;20010;-91
2023/05/23 04:58:15;;;;;;;3.42;1.27;;;;;;;15.77;100.00;99500.25;6087927;23;20038;-93
2023/05/23 05:00:41;;;;;;;0.43;0.43;;;;;;;15.90;100.00;99499.91;6087142;23;20019;-91
2023/05/23 05:03:08;;;;;;;0.70;0.70;;;;;;;15.86;100.00;99486.91;6087704;23;20377;-91
2023/05/23 05:05:39;;;;;;;1.45;1.33;;;;;;;16.14;100.00;99514.50;6064715;23;20456;-90
2023/05/23 05:08:06;;;;;;;1.38;1.27;;;;;;;16.15;100.00;99505.63;6086911;23;20021;-88
2023/05/23 05:10:33;;;;;;;1.92;1.40;;;;;;;16.49;100.00;99534.06;6065025;23;20396;-92
2023/05/23 05:12:59;;;;;;;3.47;1.45;;;;;;;16.32;100.00;99503.06;6039455;23;20006;-91
2023/05/23 05:15:32;;;;;;;1.73;1.52;;;;;;;16.44;100.00;99501.94;6087369;23;20022;-92
2023/05/23 05:17:58;;;;;;;1.88;1.67;;;;;;;16.65;100.00;99514.72;6088582;23;20033;-90
2023/05/23 05:20:24;;;;;;;0.25;0.25;;;;;;;16.74;100.00;99516.59;6065616;23;20026;-92
2023/05/23 05:22:57;;;;;;;2.08;1.92;;;;;;;16.92;100.00;99507.09;6088674;23;20019;-92
2023/05/23 05:25:23;;;;;;;1.80;1.17;;;;;;;17.15;100.00;99522.88;6092328;23;20047;-91
2023/05/23 05:27:49;;;;;;;1.55;1.45;;;;;;;17.12;100.00;99495.84;6089527;23;20153;-89
2023/05/23 05:30:18;;;;;;;1.48;1.08;;;;;;;17.31;100.00;99497.03;6065261;23;20472;-89
2023/05/23 05:32:56;;;;;;;2.55;2.15;;;;;;;17.39;100.00;99489.72;6046905;23;20022;-91
2023/05/23 05:35:23;;;;;;;2.30;1.70;;;;;;;17.66;100.00;99517.28;6065711;23;20031;-91
2023/05/23 05:38:05;;;;;;;1.40;1.27;;;;;;;17.79;100.00;99514.06;6089547;23;20345;-91
2023/05/23 05:40:40;;;;;;;1.42;1.33;;;;;;;17.96;100.00;99512.13;6069379;23;20022;-91
2023/05/23 05:43:06;;;;;;;0.35;0.35;;;;;;;17.95;100.00;99478.97;6089525;23;20030;-89
2023/05/23 05:45:32;;;;;;;1.70;1.60;;;;;;;18.27;100.00;99497.25;6090176;23;20014;-91
2023/05/23 05:47:57;;;;;;;2.40;1.52;;;;;;;18.65;100.00;99535.22;6065830;23;20102;-91
2023/05/23 05:50:24;;;;;;;5.70;1.38;;;;;;;18.79;100.00;99528.66;6088818;23;20050;-91
2023/05/23 05:52:50;;;;;;;0.95;0.68;;;;;;;19.01;100.00;99525.13;6065679;23;20033;-91
2023/05/23 05:55:16;;;;;;;0.88;0.82;;;;;;;19.13;100.00;99518.25;6090158;23;20137;-90
2023/05/23 05:57:45;;;;;;;1.58;1.48;;;;;;;19.40;100.00;99506.28;6066138;23;20029;-90
2023/05/23 06:00:14;;;;;;;1.35;1.25;;;;;;;19.49;100.00;99514.50;6090951;23;20014;-89
2023/05/23 06:02:53;;;;;;;1.23;1.10;;;;;;;19.71;100.00;99521.41;6098128;23;20030;-91
2023/05/23 06:05:29;;;;;;;0.93;0.93;;;;;;;19.95;100.00;99522.41;6120746;23;20033;-89
2023/05/23 06:07:55;;;;;;;2.20;2.00;;;;;;;20.08;100.00;99512.66;6072113;23;20355;-88
2023/05/23 06:10:21;;;;;;;1.23;1.13;;;;;;;20.09;100.00;99483.25;6122378;23;20487;-89
2023/05/23 06:12:48;;;;;;;1.55;1.33;;;;;;;20.26;100.00;99490.34;6095470;23;20018;-86
2023/05/23 06:15:14;;;;;;;1.63;1.52;;;;;;;20.49;100.00;99499.53;6095755;23;20006;-88
2023/05/23 06:17:41;;;;;;;2.88;1.23;;;;;;;20.55;100.00;99491.03;6096600;23;20467;-88
2023/05/23 06:20:07;;;;;;;1.17;1.08;;;;;;;20.81;100.00;99491.44;6095928;23;20017;-88
2023/05/23 06:22:36;;;;;;;2.38;0.63;;;;;;;20.98;100.00;99492.13;6096218;23;20017;-88
2023/05/23 06:25:02;;;;;;;1.42;1.33;;;;;;;21.29;100.00;99519.88;6072362;23;20010;-87
2023/05/23 06:27:27;;;;;;;2.20;1.35;;;;;;;21.40;100.00;99505.69;6072547;23;20093;-87
2023/05/23 06:29:53;;;;;;;0.40;0.40;;;;;;;21.52;100.00;99514.06;6121114;23;20418;-87
2023/05/23 06:32:20;;;;;;;2.40;2.03;;;;;;;21.59;100.00;99507.88;6096852;23;20010;-88
2023/05/23 06:34:46;;;;;;;2.80;2.53;;;;;;;21.52;100.00;99488.66;6095874;23;20021;-88
2023/05/23 06:37:11;;;;;;;1.92;1.45;;;;;;;21.68;100.00;99496.22;6121998;23;20525;-88
2023/05/23 06:39:37;;;;;;;1.65;1.00;;;;;;;21.78;100.00;99497.44;6096027;23;20021;-87
2023/05/23 06:42:03;;;;;;;2.10;1.90;;;;;;;22.01;100.00;99504.41;6072810;23;20018;-87
2023/05/23 06:44:39;;;;;;;1.67;1.58;;;;;;;21.97;100.00;99489.03;6073497;23;20005;-88
2023/05/23 06:47:05;;;;;;;0.63;0.63;;;;;;;21.92;100.00;99493.44;6096042;23;20014;-88
2023/05/23 06:49:31;;;;;;;1.90;1.58;;;;;;;21.98;100.00;99473.66;6096209;23;20025;-88
2023/05/23 06:51:56;;;;;;;2.33;1.88;;;;;;;21.99;99.49;99495.72;6094731;23;20017;-88
2023/05/23 06:54:22;;;;;;;1.58;1.48;;;;;;;22.04;100.00;99506.16;6122649;23;20010;-88
2023/05/23 06:56:48;;;;;;;1.15;1.05;;;;;;;21.74;98.81;99472.31;6071759;23;20064;-89
2023/05/23 06:59:14;;;;;;;0.73;0.65;;;;;;;21.97;100.00;99489.81;6071496;23;20021;-88
2023/05/23 07:01:40;;;;;;;1.40;1.23;;;;;;;22.56;100.00;99516.41;6071149;23;20400;-88
2023/05/23 07:04:05;;;;;;;1.75;1.38;;;;;;;22.71;100.00;99471.53;6048419;23;20096;-93
2023/05/23 07:06:31;;;;;;;0.90;0.90;;;;;;;23.37;97.06;99526.38;6095456;23;20010;-92
2023/05/23 07:08:57;;;;;;;0.68;0.68;;;;;;;23.44;94.40;99479.72;6070526;23;20040;-91
2023/05/23 07:11:26;;;;;;;2.28;1.50;;;;;;;23.86;89.03;99520.47;6095509;23;20049;-90
2023/05/23 07:13:54;;;;;;;1.60;1.40;;;;;;;23.95;88.26;99506.63;6072442;23;20024;-91
2023/05/23 07:16:32;;;;;;;1.48;1.10;;;;;;;24.13;83.77;99519.97;6074302;23;20018;-92
2023/05/23 07:19:04;;;;;;;0.85;0.60;;;;;;;24.27;87.13;99522.81;6073189;23;20021;-92
2023/05/23 07:21:31;;;;;;;1.73;1.38;;;;;;;24.17;88.15;99516.84;6096034;23;20018;-90
2023/05/23 07:23:57;;;;;;;0.70;0.70;;;;;;;24.44;87.72;99509.84;6047364;23;20329;-91
2023/05/23 07:26:22;;;;;;;2.35;1.33;;;;;;;24.76;85.74;99512.56;6120028;23;20021;-93
2023/05/23 07:28:53;;;;;;;2.33;1.63;;;;;;;24.87;85.20;99515.16;6072822;23;20022;-90
2023/05/23 07:31:19;;;;;;;1.83;1.58;;;;;;;24.75;84.86;99508.19;6047573;23;20098;-91
2023/05/23 07:33:45;;;;;;;6.20;1.58;;;;;;;25.17;81.43;99516.84;6095888;23;20013;-91
2023/05/23 07:36:16;;;;;;;0.80;0.80;;;;;;;25.35;75.87;99524.44;6094977;23;20013;-91
2023/05/23 07:38:42;;;;;;;1.77;1.65;;;;;;;25.69;76.40;99508.13;6095526;23;20021;-90
2023/05/23 07:41:08;;;;;;;3.45;1.17;;;;;;;25.87;70.96;99512.09;6071758;23;20128;-91
2023/05/23 07:43:33;;;;;;;2.72;1.63;;;;;;;25.83;71.82;99515.28;6071523;23;20009;-91
2023/05/23 07:45:59;;;;;;;0.80;0.80;;;;;;;25.80;73.94;99496.47;6070797;23;20018;-90
2023/05/23 07:48:26;;;;;;;2.05;1.55;;;;;;;26.25;73.36;99509.53;6071463;23;20041;-91
2023/05/23 07:50:53;;;;;;;2.25;2.05;;;;;;;26.66;72.15;99500.09;6071917;23;20341;-89
2023/05/23 07:53:21;;;;;;;1.65;1.55;;;;;;;26.72;67.36;99510.00;6071121;23;20409;-91
2023/05/23 07:55:47;;;;;;;1.27;0.98;;;;;;;26.94;66.26;99496.44;6048120;23;20026;-91
2023/05/23 07:58:13;;;;;;;1.02;0.93;;;;;;;26.92;64.23;99501.97;6071428;23;20025;-92
2023/05/23 08:00:40;;;;;;;2.10;1.67;;;;;;;26.93;61.65;99506.34;6095235;23;20012;-91
2023/05/23 08:03:15;;;;;;;0.95;0.95;;;;;;;26.40;66.48;99501.13;6073519;23;20111;-87
2023/05/23 08:05:52;;;;;;;1.50;1.38;;;;;;;26.63;65.10;99512.63;6073425;23;20100;-88
2023/05/23 08:08:18;;;;;;;1.67;1.30;;;;;;;26.59;67.25;99509.38;6095076;23;20018;-87
2023/05/23 08:10:44;;;;;;;1.25;1.13;;;;;;;26.92;67.00;99504.81;6095592;23;20014;-87
2023/05/23 08:13:18;;;;;;;1.42;0.98;;;;;;;26.42;64.84;99504.91;6051035;23;20022;-87
2023/05/23 08:16:03;;;;;;;2.83;1.40;;;;;;;26.43;67.56;99488.63;6098774;23;20032;-87
2023/05/23 08:18:29;;;;;;;1.08;0.60;;;;;;;26.90;67.00;99511.81;6072304;23;20388;-88
2023/05/23 08:20:56;;;;;;;1.10;1.00;;;;;;;27.03;61.70;99490.22;6094601;23;20005;-87
2023/05/23 08:23:21;;;;;;;5.13;2.53;;;;;;;27.42;62.33;99486.91;6047122;23;20014;-87
2023/05/23 08:25:47;;;;;;;1.13;1.05;;;;;;;27.87;60.11;99509.00;6095386;23;20014;-87
2023/05/23 08:28:13;;;;;;;0.95;0.88;;;;;;;27.84;55.89;99507.28;6071887;23;20129;-87
2023/05/23 08:30:57;;;;;;;2.42;1.30;;;;;;;27.54;55.47;99502.31;6094535;23;20013;-87
2023/05/23 08:33:23;;;;;;;1.58;1.25;;;;;;;27.60;53.34;99499.31;6094544;23;20018;-87
2023/05/23 08:35:52;;;;;;;1.15;1.05;;;;;;;27.92;54.57;99507.28;6095092;23;20069;-87
2023/05/23 08:38:20;;;;;;;1.80;1.08;;;;;;;28.00;54.23;99502.34;6094769;23;20168;-87
2023/05/23 08:41:00;;;;;;;1.42;1.15;;;;;;;28.39;54.71;99504.59;6094595;23;20093;-87
2023/05/23 08:43:27;;;;;;;10.55;3.03;;;;;;;28.04;50.80;99500.63;6070987;23;20026;-86
2023/05/23 08:45:54;;;;;;;3.00;1.88;;;;;;;28.21;53.41;99494.38;6070290;23;20502;-86
2023/05/23 08:48:20;;;;;;;0.70;0.70;;;;;;;28.65;50.80;99507.00;6071585;23;20024;-87
2023/05/23 08:50:49;;;;;;;3.00;1.50;;;;;;;28.50;49.90;99492.78;6094522;23;20399;-87
2023/05/23 08:53:19;;;;;;;1.45;1.30;;;;;;;28.79;50.49;99490.44;6094843;23;20021;-89
2023/05/23 08:55:47;;;;;;;1.25;1.15;;;;;;;28.98;50.00;99489.97;6094482;23;20511;-87
2023/05/23 08:58:14;;;;;;;0.95;0.93;;;;;;;29.32;47.78;99498.72;6095535;23;20026;-86
2023/05/23 09:00:46;;;;;;;;;;;;;;;29.64;47.64;99498.72;6094162;23;20344;-88
2023/05/23 09:03:13;;;;;;;2.05;1.52;;;;;;;29.46;46.85;99504.94;6065830;23;20328;-87
2023/05/23 09:05:58;;;;;;;1.30;1.00;;;;;;;28.93;47.68;99505.97;6069086;23;20020;-88
2023/05/23 09:08:24;;;;;;;2.63;1.42;;;;;;;29.05;47.26;99501.34;6091706;23;20014;-87
2023/05/23 09:10:55;;;;;;;1.33;1.23;;;;;;;28.35;46.97;99466.41;6043647;23;20030;-87
2023/05/23 09:13:21;;;;;;;1.20;0.88;;;;;;;28.37;48.25;99475.13;6090056;23;20023;-87
2023/05/23 09:16:04;;;;;;;2.65;1.73;;;;;;;28.94;49.45;99501.78;6089707;23;20009;-87
2023/05/23 09:18:41;;;;;;;1.83;1.15;;;;;;;28.73;47.51;99467.81;6089591;23;20457;-87
2023/05/23 09:21:08;;;;;;;1.48;1.27;;;;;;;28.88;43.95;99460.50;6089473;23;20014;-87
2023/05/23 09:23:40;;;;;;;1.58;1.48;;;;;;;28.87;44.23;99467.56;6065521;23;20015;-87
2023/05/23 09:26:09;;;;;;;0.77;0.73;;;;;;;29.32;44.87;99483.72;6067199;23;20025;-87
2023/05/23 09:28:36;;;;;;;0.75;0.75;;;;;;;29.40;43.52;99455.84;6065557;23;20014;-87
2023/05/23 09:31:06;;;;;;;1.60;1.00;;;;;;;29.98;42.91;99488.75;6089324;23;20021;-87
2023/05/23 09:33:48;;;;;;;1.95;1.77;;;;;;;30.17;41.41;99460.34;6091540;23;20017;-88
2023/05/23 09:36:17;;;;;;;1.50;1.40;;;;;;;29.98;41.09;99478.06;6089585;23;20018;-89
2023/05/23 09:38:45;;;;;;;2.72;1.17;;;;;;;29.55;41.53;99464.31;6089395;23;20014;-88
2023/05/23 09:41:11;;;;;;;1.05;0.75;;;;;;;29.57;40.53;99470.19;6089952;23;20564;-88
2023/05/23 09:43:48;;;;;;;1.17;1.13;;;;;;;29.65;40.75;99454.50;6090556;23;20010;-87
2023/05/23 09:46:14;;;;;;;1.27;1.17;;;;;;;29.52;39.68;99462.63;6089845;23;20101;-92
2023/05/23 09:48:46;;;;;;;0.85;0.82;;;;;;;29.40;40.62;99468.03;6090310;23;20637;-92
2023/05/23 09:51:11;;;;;;;1.17;0.93;;;;;;;28.90;41.67;99478.59;6089783;23;20093;-91
2023/05/23 09:53:37;;;;;;;0.90;0.82;;;;;;;29.18;41.28;99480.34;6089906;23;20017;-92
2023/05/23 09:56:03;;;;;;;1.25;1.13;;;;;;;29.45;39.45;99480.56;6065356;23;20070;-92
2023/05/23 09:58:29;;;;;;;1.15;0.93;;;;;;;29.69;38.26;99476.94;6090076;23;20701;-92
2023/05/23 10:00:55;;;;;;;1.35;1.25;;;;;;;30.04;37.75;99454.97;6089255;23;20018;-92
2023/05/23 10:03:34;;;;;;;0.60;0.60;;;;;;;29.98;36.84;99474.44;6089857;23;20385;-92
2023/05/23 10:06:06;;;;;;;0.80;0.80;;;;;;;30.26;37.13;99471.13;6089750;23;20046;-92
2023/05/23 10:08:42;;;;;;;2.35;1.30;;;;;;;30.46;36.85;99478.56;6066043;23;20069;-92
2023/05/23 10:11:15;;;;;;;2.35;1.35;;;;;;;30.70;36.18;99473.31;6042075;23;20037;-92
2023/05/23 10:13:44;;;;;;;2.28;1.73;;;;;;;30.51;34.98;99451.78;6091871;23;20010;-92
2023/05/23 10:16:10;;;;;;;1.20;1.08;;;;;;;30.54;35.38;99458.44;6089300;23;20014;-92
2023/05/23 10:18:41;;;;;;;2.60;1.98;;;;;;;30.25;35.33;99468.88;6090245;23;20013;-92
2023/05/23 10:21:10;;;;;;;0.65;0.65;;;;;;;29.70;36.90;99454.84;6065739;23;20014;-92
2023/05/23 10:23:36;;;;;;;2.53;1.40;;;;;;;29.78;36.09;99464.88;6089945;23;20073;-92
2023/05/23 10:26:03;;;;;;;2.55;1.15;;;;;;;29.65;36.58;99443.06;6090974;23;20022;-92
2023/05/23 10:28:31;;;;;;;1.90;1.33;;;;;;;30.04;36.65;99454.97;6066157;23;20089;-92
2023/05/23 10:30:57;;;;;;;2.25;0.90;;;;;;;30.42;35.69;99448.81;6065493;23;20003;-93
2023/05/23 10:33:23;;;;;;;1.85;1.48;;;;;;;30.66;34.57;99455.81;6090495;23;20093;-92
2023/05/23 10:36:06;;;;;;;2.53;2.15;;;;;;;30.72;33.05;99444.88;6089190;23;20006;-92
2023/05/23 10:38:36;;;;;;;0.73;0.73;;;;;;;30.43;33.87;99439.69;6065545;23;20022;-92
2023/05/23 10:41:07;;;;;;;0.95;0.95;;;;;;;30.51;33.89;99451.78;6066451;23;20394;-92
2023/05/23 10:44:02;;;;;;;0.80;0.80;;;;;;;29.87;34.65;99443.50;6089574;23;20105;-92
2023/05/23 10:46:54;;;;;;;1.10;1.00;;;;;;;30.41;34.77;99448.06;6092786;23;20045;-92
2023/05/23 10:49:20;;;;;;;0.73;0.73;;;;;;;30.71;34.28;99443.34;6090720;23;20014;-92
2023/05/23 10:51:50;;;;;;;0.73;0.63;;;;;;;30.95;33.55;99436.72;6091259;23;20018;-92
2023/05/23 10:54:18;;;;;;;1.25;0.77;;;;;;;31.20;32.49;99434.47;6066701;23;20018;-92
2023/05/23 10:56:43;;;;;;;1.27;1.17;;;;;;;31.44;32.84;99436.41;6091626;23;20080;-91
2023/05/23 10:59:19;;;;;;;1.02;0.88;;;;;;;31.56;32.53;99447.31;6091210;23;20433;-91
2023/05/23 11:01:45;;;;;;;2.55;1.20;;;;;;;31.20;31.85;99440.22;6091896;23;20018;-92
2023/05/23 11:04:10;;;;;;;2.08;1.67;;;;;;;31.26;32.28;99432.09;6121710;23;20527;-92
2023/05/23 11:06:43;;;;;;;2.58;1.40;;;;;;;31.13;33.29;99415.31;6096658;23;20014;-91
2023/05/23 11:09:18;;;;;;;;;;;;;;;31.03;33.94;99434.53;6048548;23;20439;-92
2023/05/23 11:11:52;;;;;;;0.85;0.85;;;;;;;31.09;34.44;99431.41;6122094;23;19916;-87
2023/05/23 11:14:19;;;;;;;1.35;1.25;;;;;;;31.02;34.27;99423.69;6122047;23;20018;-87
2023/05/23 11:16:48;;;;;;;1.88;1.40;;;;;;;31.15;33.99;99404.00;6071734;23;20076;-87
2023/05/23 11:19:20;;;;;;;3.35;2.15;;;;;;;30.84;33.05;99411.50;6072394;23;20721;-87
2023/05/23 11:21:48;;;;;;;1.08;0.93;;;;;;;30.75;33.65;99412.19;6096059;23;20100;-87
2023/05/23 11:24:14;;;;;;;0.88;0.88;;;;;;;30.57;33.76;99410.72;6071858;23;20017;-87
2023/05/23 11:26:54;;;;;;;1.25;1.08;;;;;;;30.42;34.16;99386.63;6095973;23;20439;-87
2023/05/23 11:29:20;;;;;;;2.40;1.00;;;;;;;30.66;34.75;99381.38;6096055;23;20022;-88
2023/05/23 11:31:45;;;;;;;3.63;1.38;;;;;;;30.29;33.91;99369.06;6071886;23;20068;-88
2023/05/23 11:34:12;;;;;;;1.60;1.45;;;;;;;30.47;34.97;99377.06;6095914;23;20006;-88
2023/05/23 11:36:39;;;;;;;0.80;0.80;;;;;;;30.75;32.62;99390.03;6095715;23;20024;-86
2023/05/23 11:39:05;;;;;;;1.83;1.23;;;;;;;30.30;32.66;99359.88;6047904;23;20338;-91
2023/05/23 11:41:32;;;;;;;0.65;0.65;;;;;;;30.69;33.98;99391.66;6072273;23;20099;-92
2023/05/23 11:43:58;;;;;;;1.20;1.10;;;;;;;31.02;33.90;99383.59;6096012;23;20018;-90
2023/05/23 11:46:24;;;;;;;1.65;1.55;;;;;;;31.02;33.16;99383.59;6094966;23;20745;-91
2023/05/23 11:48:49;;;;;;;1.20;0.85;;;;;;;30.79;33.30;99372.44;6121557;23;20018;-87
2023/05/23 11:51:16;;;;;;;0.68;0.68;;;;;;;30.61;34.06;99379.56;6095211;23;20022;-89
2023/05/23 11:53:41;;;;;;;0.90;0.90;;;;;;;30.64;34.46;99366.91;6121042;23;20422;-92
2023/05/23 11:56:07;;;;;;;3.20;1.95;;;;;;;30.80;34.01;99356.78;6094122;23;20065;-91